Terminal Aerodrome Forecast
Issued by NWS Mt. Holly, NJ

Current Version | Previous Version | Text Only | Print | Product List | Glossary On
Versions: 1 2 3 4 5 6 7 8 9 10 11 12 13 14 15 16 17 18 19 20 21 22 23 24 25 26 27 28 29 30 31 32 33
000
FTUS41 KPHI 052147 AAC
TAFPHL
TAF AMD
KPHL 052147Z 0522/0624 34012KT 1/4SM +SN FZFG SCT007 OVC011
     FM052230 34012KT 2SM -SN OVC015
     FM052330 34012KT P6SM OVC025
     FM060100 32007KT P6SM BKN100
     FM061000 35007KT P6SM SKC=

USA.gov is the U.S. government's official web portal to all federal, state and local government web resources and services.